Daten der privaten, lokalen Wetterstation von Stefan Zilt in Osnabrck
Wetterdaten: aktuell Mittwoch, 25.05.2022 17:31
Datum Zeit Temp. NORD Luftfeuchte Luftdruck Regen Wind Windrichtung Windrichtung Sonnenschein Helligkeit
25.05.2022 17:31 18,7 C 0 % 1000 hPa 0,0 l/m 17,8 km/h SW67.5 235 0 min 23,7 klux
25.05.2022 17:21 18,7 C 0 % 1000 hPa 0,0 l/m 22,5 km/h SW45 220 0 min 20,1 klux
25.05.2022 17:11 18,6 C 0 % 1000 hPa 0,0 l/m 26,3 km/h SW67.5 230 0 min 9,1 klux
25.05.2022 17:01 18,9 C 0 % 1000 hPa 0,0 l/m 25,9 km/h W-SW45 250 0 min 18,7 klux
25.05.2022 16:51 18,7 C 0 % 999 hPa 0,0 l/m 29,5 km/h W-SW45 255 0 min 13,3 klux
25.05.2022 16:41 19,0 C 0 % 999 hPa 0,0 l/m 29,0 km/h W-SW45 240 0 min 11,0 klux
25.05.2022 16:31 20,0 C 0 % 999 hPa 0,0 l/m 26,8 km/h SW45 220 0 min 12,9 klux
25.05.2022 16:21 21,7 C 0 % 1000 hPa 0,0 l/m 24,0 km/h S67.5 190 0 min 41,9 klux
25.05.2022 16:11 23,2 C 0 % 1000 hPa 0,0 l/m 21,7 km/h W-SW45 250 10 min 94,9 klux
25.05.2022 16:01 22,3 C 0 % 1000 hPa 0,0 l/m 22,8 km/h W-SW45 250 10 min 101 klux
25.05.2022 15:51 20,8 C 0 % 1000 hPa 0,0 l/m 27,5 km/h W67.5 270 10 min 83,3 klux
25.05.2022 15:41 19,8 C 21 % 1000 hPa 0,0 l/m 27,6 km/h W-SW67.5 250 0 min 32,9 klux
25.05.2022 15:31 20,1 C 25 % 1000 hPa 0,0 l/m 18,2 km/h SW67.5 230 10 min 78,9 klux
25.05.2022 15:21 20,2 C 28 % 1000 hPa 0,0 l/m 17,2 km/h SW67.5 230 10 min 95,3 klux
25.05.2022 15:11 18,3 C 34 % 1000 hPa 0,0 l/m 31,7 km/h SW67.5 235 0 min 47,2 klux
25.05.2022 15:01 19,5 C 0 % 1000 hPa 0,0 l/m 23,0 km/h W-SW67.5 240 0 min 30,0 klux
25.05.2022 14:51 20,1 C 21 % 1000 hPa 0,0 l/m 16,4 km/h SW67.5 225 10 min 75,8 klux
25.05.2022 14:41 20,2 C 0 % 1000 hPa 0,0 l/m 26,8 km/h SW67.5 225 10 min 72,3 klux
25.05.2022 14:31 19,1 C 22 % 1000 hPa 0,0 l/m 21,8 km/h W-SW67.5 240 0 min 34,0 klux
25.05.2022 14:21 19,3 C 23 % 1000 hPa 0,0 l/m 20,4 km/h W-SW45 245 0 min 42,6 klux
25.05.2022 14:11 19,2 C 25 % 1000 hPa 0,0 l/m 18,1 km/h SW67.5 225 10 min 88,4 klux
25.05.2022 14:01 19,1 C 25 % 1000 hPa 0,0 l/m 21,3 km/h W-SW67.5 255 0 min 37,7 klux
25.05.2022 13:51 19,5 C 24 % 1000 hPa 0,0 l/m 26,7 km/h W-SW67.5 240 10 min 80,2 klux
25.05.2022 13:41 19,4 C 25 % 1000 hPa 0,0 l/m 23,8 km/h SW45 215 10 min 81,8 klux
25.05.2022 13:31 19,1 C 26 % 1000 hPa 0,0 l/m 25,9 km/h SW67.5 225 10 min 75,6 klux
25.05.2022 13:21 18,6 C 28 % 1000 hPa 0,0 l/m 24,7 km/h SW67.5 225 0 min 46,2 klux
25.05.2022 13:11 18,6 C 27 % 1000 hPa 0,0 l/m 24,6 km/h W-SW45 240 10 min 66,8 klux
25.05.2022 13:01 18,4 C 28 % 1000 hPa 0,0 l/m 27,8 km/h SW67.5 220 10 min 78,5 klux
25.05.2022 12:51 18,1 C 29 % 1000 hPa 0,0 l/m 23,4 km/h SW67.5 220 10 min 87,0 klux
25.05.2022 12:41 18,2 C 31 % 1000 hPa 0,0 l/m 22,4 km/h S-SW45 210 10 min 69,7 klux
25.05.2022 12:31 17,9 C 31 % 1000 hPa 0,0 l/m 24,3 km/h SW67.5 225 10 min 107 klux
25.05.2022 12:21 17,7 C 31 % 1000 hPa 0,0 l/m 26,5 km/h S-SW67.5 210 10 min 106 klux
25.05.2022 12:11 17,3 C 31 % 1000 hPa 0,0 l/m 30,1 km/h W-SW67.5 255 10 min 104 klux
25.05.2022 12:01 17,0 C 32 % 1000 hPa 0,0 l/m 27,8 km/h W-SW67.5 250 10 min 75,8 klux
25.05.2022 11:51 16,8 C 35 % 1000 hPa 0,0 l/m 24,3 km/h W67.5 260 10 min 94,7 klux
25.05.2022 11:41 16,5 C 35 % 1000 hPa 0,0 l/m 27,5 km/h W-SW67.5 240 0 min 59,1 klux
25.05.2022 11:31 16,7 C 35 % 1000 hPa 0,0 l/m 17,2 km/h SW67.5 220 10 min 94,5 klux
25.05.2022 11:21 16,5 C 37 % 1000 hPa 0,0 l/m 19,1 km/h SW67.5 215 10 min 94,9 klux
25.05.2022 11:11 16,2 C 37 % 1000 hPa 0,0 l/m 24,7 km/h SW45 230 10 min 88,7 klux
25.05.2022 11:01 16,1 C 39 % 1000 hPa 0,0 l/m 21,4 km/h S-SW67.5 210 10 min 85,7 klux
25.05.2022 10:51 15,9 C 38 % 1000 hPa 0,0 l/m 26,0 km/h SW45 215 10 min 83,3 klux
25.05.2022 10:41 15,8 C 39 % 1000 hPa 0,0 l/m 26,6 km/h S-SW67.5 195 10 min 78,4 klux
25.05.2022 10:31 15,7 C 39 % 1000 hPa 0,0 l/m 21,8 km/h SW67.5 235 0 min 24,8 klux
25.05.2022 10:21 15,6 C 40 % 1000 hPa 0,0 l/m 22,9 km/h S-SW67.5 195 10 min 79,0 klux
25.05.2022 10:11 15,5 C 41 % 1000 hPa 0,0 l/m 24,5 km/h S-SW67.5 210 10 min 81,8 klux
25.05.2022 10:01 15,0 C 43 % 1000 hPa 0,0 l/m 17,8 km/h SW45 230 10 min 74,9 klux
25.05.2022 09:51 14,6 C 45 % 1000 hPa 0,0 l/m 20,4 km/h W-SW67.5 245 10 min 73,9 klux
25.05.2022 09:41 14,4 C 45 % 1000 hPa 0,0 l/m 14,1 km/h SW67.5 225 10 min 64,2 klux
25.05.2022 09:31 14,1 C 45 % 1000 hPa 0,0 l/m 21,5 km/h W45 260 10 min 60,8 klux
25.05.2022 09:21 13,9 C 46 % 1000 hPa 0,0 l/m 17,4 km/h SW67.5 230 10 min 56,7 klux
25.05.2022 09:11 13,7 C 46 % 1000 hPa 0,0 l/m 15,4 km/h W-SW67.5 240 10 min 54,2 klux
25.05.2022 09:01 13,5 C 46 % 1000 hPa 0,0 l/m 17,1 km/h SW67.5 220 10 min 51,9 klux
25.05.2022 08:51 13,3 C 47 % 999 hPa 0,0 l/m 18,7 km/h SW67.5 230 10 min 49,5 klux
25.05.2022 08:41 13,0 C 48 % 999 hPa 0,0 l/m 12,0 km/h SW67.5 225 10 min 47,3 klux
25.05.2022 08:31 12,8 C 50 % 999 hPa 0,0 l/m 14,4 km/h SW67.5 235 10 min 44,9 klux
25.05.2022 08:21 12,6 C 50 % 999 hPa 0,0 l/m 15,0 km/h W-SW45 250 10 min 42,2 klux
25.05.2022 08:11 12,4 C 51 % 999 hPa 0,0 l/m 13,8 km/h W-SW67.5 245 10 min 41,0 klux
25.05.2022 08:01 12,3 C 52 % 999 hPa 0,0 l/m 13,5 km/h W-SW45 250 10 min 37,0 klux
25.05.2022 07:51 12,0 C 53 % 999 hPa 0,0 l/m 11,0 km/h W-SW67.5 250 10 min 31,6 klux
25.05.2022 07:41 11,8 C 55 % 999 hPa 0,0 l/m 11,3 km/h S-SW45 210 10 min 31,1 klux
25.05.2022 07:31 11,6 C 55 % 999 hPa 0,0 l/m 6,1 km/h W-SW67.5 250 0 min 17,6 klux
25.05.2022 07:21 11,4 C 55 % 999 hPa 0,0 l/m 6,3 km/h S-SW45 205 0 min 6,20 klux
25.05.2022 07:11 11,2 C 56 % 999 hPa 0,0 l/m 0,7 km/h S45 180 0 min 5,95 klux
25.05.2022 07:01 11,0 C 56 % 999 hPa 0,0 l/m 0,0 km/h S-SW 200 0 min 5,80 klux
25.05.2022 06:51 10,7 C 57 % 999 hPa 0,0 l/m 0,5 km/h SW22.5 220 0 min 5,23 klux
25.05.2022 06:41 10,3 C 57 % 999 hPa 0,0 l/m 6,3 km/h S-SW45 200 0 min 4,70 klux
25.05.2022 06:31 9,9 C 57 % 999 hPa 0,0 l/m 0,0 km/h S-SO 165 0 min 4,14 klux
25.05.2022 06:21 9,8 C 57 % 999 hPa 0,0 l/m 0,0 km/h S-SO 165 0 min 3,55 klux
25.05.2022 06:11 9,7 C 57 % 999 hPa 0,0 l/m 0,0 km/h S-SO 165 0 min 2,93 klux
25.05.2022 06:01 9,6 C 57 % 999 hPa 0,0 l/m 0,0 km/h S-SO 165 0 min 2,29 klux
25.05.2022 05:51 9,6 C 57 % 999 hPa 0,0 l/m 0,0 km/h S-SO 165 0 min 1,88 klux
25.05.2022 05:41 9,6 C 56 % 999 hPa 0,0 l/m 0,0 km/h S-SO 165 0 min 1,33 klux
25.05.2022 05:31 9,6 C 56 % 999 hPa 0,0 l/m 0,0 km/h S-SO 165 0 min 759 lux
25.05.2022 05:21 9,7 C 56 % 999 hPa 0,0 l/m 0,0 km/h S-SO 165 0 min 382 lux
25.05.2022 05:11 9,8 C 56 % 998 hPa 0,0 l/m 0,0 km/h S-SO 165 0 min 129 lux
25.05.2022 05:01 10,0 C 56 % 998 hPa 0,0 l/m 0,0 km/h S-SO 165 0 min 58 lux
25.05.2022 04:51 10,0 C 56 % 998 hPa 0,0 l/m 0,0 km/h S-SO 165 0 min 0 lux
25.05.2022 04:41 10,1 C 56 % 998 hPa 0,0 l/m 0,0 km/h S-SO 165 0 min 0 lux
25.05.2022 04:31 10,1 C 56 % 998 hPa 0,0 l/m 0,0 km/h S-SW 200 0 min 0 lux
25.05.2022 04:21 10,1 C 56 % 998 hPa 0,0 l/m 0,0 km/h S-SW 200 0 min 0 lux
25.05.2022 04:11 10,2 C 56 % 998 hPa 0,0 l/m 0,0 km/h S-SW 200 0 min 0 lux
25.05.2022 04:01 10,2 C 56 % 998 hPa 0,0 l/m 0,0 km/h S-SW 200 0 min 0 lux
25.05.2022 03:51 10,4 C 56 % 998 hPa 0,0 l/m 0,0 km/h S-SW 200 0 min 0 lux
25.05.2022 03:41 10,5 C 56 % 998 hPa 0,0 l/m 0,0 km/h S-SW 195 0 min 0 lux
25.05.2022 03:31 10,5 C 55 % 998 hPa 0,0 l/m 0,2 km/h S-SW 195 0 min 0 lux
25.05.2022 03:21 10,8 C 56 % 998 hPa 0,0 l/m 0,0 km/h S22.5 180 0 min 0 lux
25.05.2022 03:11 10,8 C 55 % 998 hPa 0,0 l/m 0,0 km/h S-SW 200 0 min 0 lux
25.05.2022 03:01 11,0 C 54 % 998 hPa 0,0 l/m 0,0 km/h S-SW 205 0 min 0 lux
25.05.2022 02:51 11,1 C 55 % 998 hPa 0,0 l/m 0,3 km/h S-SW22.5 205 0 min 0 lux
25.05.2022 02:41 11,3 C 55 % 998 hPa 0,0 l/m 0,0 km/h W-SW 250 0 min 0 lux
25.05.2022 02:31 11,4 C 55 % 998 hPa 0,0 l/m 0,7 km/h W-SW 245 0 min 0 lux
25.05.2022 02:21 11,3 C 55 % 997 hPa 0,0 l/m 0,3 km/h SW67.5 220 0 min 0 lux
25.05.2022 02:11 11,4 C 55 % 997 hPa 0,0 l/m 0,0 km/h S-SW 200 0 min 0 lux
25.05.2022 02:01 11,4 C 55 % 998 hPa 0,0 l/m 0,0 km/h S-SW 200 0 min 0 lux
25.05.2022 01:51 11,5 C 55 % 997 hPa 0,0 l/m 0,0 km/h S-SW 200 0 min 0 lux
25.05.2022 01:41 11,5 C 55 % 997 hPa 0,0 l/m 0,0 km/h S-SW 200 0 min 0 lux
25.05.2022 01:31 11,5 C 55 % 997 hPa 0,0 l/m 0,0 km/h S-SW 200 0 min 0 lux
25.05.2022 01:22 11,7 C 54 % 997 hPa 0,0 l/m 0,0 km/h S-SW 200 0 min 0 lux
25.05.2022 01:12 11,7 C 54 % 997 hPa 0,0 l/m 0,0 km/h S-SW 200 0 min 0 lux
25.05.2022 01:01 11,9 C 54 % 997 hPa 0,0 l/m 0,0 km/h S-SW 200 0 min 0 lux
_ Min-Zeit 05:31 18:00 18:00 - 21:31 - - - -
Minimum _ 9,6 C 0 % 994 hPa - 0,0 km/h - - - -
_ Max-Zeit 16:11 05:51 09:01 18:00 15:11 - - 19:41 12:31
Maximum _ 23,2 C 57 % 1000 hPa 0,0 l/m 31,7 km/h
SW
- - 10 min 107 klux
Durchschnitt _ 15,0 C 36 % 998 hPa #0,0 l/m 12,3 km/h SW - #7:10 h 27,1 klux
copyright Stefan Zilt